createdAt,value
2022-10-25T00:01:01.843Z,4.80
2022-10-25T00:03:47.305Z,4.38
2022-10-25T00:06:35.901Z,5.45
2022-10-25T00:09:21.384Z,4.10
2022-10-25T00:12:06.956Z,3.95
2022-10-25T00:14:54.245Z,4.63
2022-10-25T00:17:39.595Z,4.30
2022-10-25T00:20:26.143Z,4.68
2022-10-25T00:23:11.693Z,4.07
2022-10-25T00:25:57.226Z,4.32
2022-10-25T00:28:42.705Z,4.70
2022-10-25T00:31:33.610Z,3.85
2022-10-25T00:34:19.144Z,3.65
2022-10-25T00:37:04.780Z,3.63
2022-10-25T00:39:50.506Z,3.83
2022-10-25T00:42:42.724Z,3.90
2022-10-25T00:45:54.576Z,3.90
2022-10-25T00:48:40.507Z,3.55
2022-10-25T00:51:27.018Z,4.00
2022-10-25T00:54:13.480Z,3.22
2022-10-25T00:57:02.865Z,3.17
2022-10-25T00:59:48.904Z,4.43
2022-10-25T01:02:36.864Z,3.45
2022-10-25T01:05:23.362Z,3.75
2022-10-25T01:08:09.860Z,3.55
2022-10-25T01:10:56.705Z,3.88
2022-10-25T01:13:42.226Z,3.47
2022-10-25T01:16:45.837Z,3.17
2022-10-25T01:19:49.164Z,4.07
2022-10-25T01:23:08.501Z,4.15
2022-10-25T01:26:20.484Z,3.67
2022-10-25T01:29:41.006Z,3.28
2022-10-25T01:32:34.548Z,3.92
2022-10-25T01:35:22.696Z,3.47
2022-10-25T01:38:35.193Z,3.00
2022-10-25T01:42:13.869Z,3.20
2022-10-25T01:45:25.306Z,3.47
2022-10-25T01:48:35.770Z,4.13
2022-10-25T01:51:29.799Z,3.08
2022-10-25T01:54:15.358Z,3.30
2022-10-25T01:57:18.839Z,4.03
2022-10-25T02:00:04.027Z,3.83
2022-10-25T02:03:13.049Z,3.70
2022-10-25T02:06:18.800Z,3.55
2022-10-25T02:09:08.094Z,3.40
2022-10-25T02:11:54.855Z,3.13
2022-10-25T02:15:03.333Z,3.25
2022-10-25T02:17:52.867Z,3.10
2022-10-25T02:20:44.441Z,3.60
2022-10-25T02:23:33.787Z,3.35
2022-10-25T02:26:21.707Z,3.60
2022-10-25T02:29:08.106Z,3.13
2022-10-25T02:31:55.337Z,3.08
2022-10-25T02:34:40.588Z,3.47
2022-10-25T02:37:27.200Z,3.15
2022-10-25T02:40:12.737Z,2.80
2022-10-25T02:42:58.498Z,3.20
2022-10-25T02:45:43.823Z,3.47
2022-10-25T02:48:29.469Z,3.17
2022-10-25T02:51:15.260Z,3.17
2022-10-25T02:54:01.127Z,4.05
2022-10-25T02:56:46.460Z,3.45
2022-10-25T02:59:31.765Z,3.67
2022-10-25T03:02:17.430Z,3.28
2022-10-25T03:05:03.128Z,2.90
2022-10-25T03:07:48.690Z,4.20
2022-10-25T03:10:34.061Z,3.80
2022-10-25T03:13:19.591Z,3.97
2022-10-25T03:16:07.319Z,3.88
2022-10-25T03:18:53.184Z,3.65
2022-10-25T03:21:41.215Z,3.28
2022-10-25T03:24:28.503Z,3.90
2022-10-25T03:27:13.982Z,2.85
2022-10-25T03:29:59.458Z,3.40
2022-10-25T03:32:45.560Z,3.00
2022-10-25T03:35:36.541Z,3.20
2022-10-25T03:38:22.038Z,2.67
2022-10-25T03:41:08.700Z,2.78
2022-10-25T03:43:54.337Z,3.55
2022-10-25T03:46:39.818Z,2.95
2022-10-25T03:49:26.254Z,2.70
2022-10-25T03:52:11.823Z,1.98
2022-10-25T03:54:57.551Z,2.47
2022-10-25T03:57:43.346Z,2.90
2022-10-25T04:00:29.263Z,2.00
2022-10-25T04:03:16.699Z,2.75
2022-10-25T04:06:02.404Z,3.10
2022-10-25T04:08:47.752Z,3.00
2022-10-25T04:11:33.443Z,2.95
2022-10-25T04:14:19.169Z,3.03
2022-10-25T04:17:04.722Z,2.75
2022-10-25T04:19:50.063Z,2.63
2022-10-25T04:25:30.480Z,3.28
2022-10-25T04:28:19.283Z,3.70
2022-10-25T04:31:05.639Z,2.88
2022-10-25T04:33:55.045Z,3.05
2022-10-25T04:36:42.207Z,2.88
2022-10-25T04:39:36.235Z,3.25
2022-10-25T04:42:21.968Z,3.55
2022-10-25T04:45:24.677Z,3.75
2022-10-25T04:48:12.779Z,3.35
2022-10-25T04:50:58.459Z,3.85
2022-10-25T04:53:46.054Z,4.50
2022-10-25T04:56:33.645Z,3.08
2022-10-25T04:59:28.391Z,3.35
2022-10-25T05:02:13.981Z,3.20
2022-10-25T05:05:02.215Z,3.25
2022-10-25T05:07:47.803Z,4.57
2022-10-25T05:14:03.749Z,3.45
2022-10-25T05:16:49.267Z,4.25
2022-10-25T05:19:34.669Z,4.32
2022-10-25T05:22:20.262Z,3.85
2022-10-25T05:25:05.810Z,4.40
2022-10-25T05:27:55.763Z,3.80
2022-10-25T05:30:41.307Z,4.28
2022-10-25T05:33:26.855Z,4.05
2022-10-25T05:36:13.984Z,4.05
2022-10-25T05:39:00.681Z,4.13
2022-10-25T05:41:46.670Z,4.70
2022-10-25T05:44:32.298Z,5.20
2022-10-25T05:47:24.829Z,4.22
2022-10-25T05:50:17.367Z,3.50
2022-10-25T05:53:03.995Z,5.00
2022-10-25T05:55:52.034Z,4.00
2022-10-25T05:58:41.356Z,5.53
2022-10-25T06:01:32.223Z,5.07
2022-10-25T06:04:20.299Z,5.72
2022-10-25T06:07:06.630Z,5.53
2022-10-25T06:09:52.144Z,5.28
2022-10-25T06:13:04.001Z,6.22
2022-10-25T06:16:02.908Z,5.13
2022-10-25T06:18:48.672Z,6.15
2022-10-25T06:21:45.006Z,6.57
2022-10-25T06:24:30.430Z,5.53
2022-10-25T06:27:15.889Z,6.97
2022-10-25T06:30:01.502Z,5.22
2022-10-25T06:32:48.719Z,5.07
2022-10-25T06:35:34.510Z,4.43
2022-10-25T06:38:20.291Z,6.47
2022-10-25T06:41:05.757Z,6.28
2022-10-25T06:43:51.987Z,5.50
2022-10-25T06:47:15.343Z,6.32
2022-10-25T06:49:50.364Z,5.05
2022-10-25T06:52:36.162Z,6.10
2022-10-25T06:55:21.738Z,5.60
2022-10-25T06:58:09.935Z,6.13
2022-10-25T07:00:58.073Z,6.25
2022-10-25T07:03:43.628Z,6.10
2022-10-25T07:06:33.765Z,5.53
2022-10-25T07:09:20.365Z,6.03
2022-10-25T07:12:10.093Z,5.60
2022-10-25T07:14:57.932Z,5.53
2022-10-25T07:17:43.803Z,6.20
2022-10-25T07:20:29.894Z,4.45
2022-10-25T07:23:15.895Z,5.40
2022-10-25T07:26:02.664Z,5.65
2022-10-25T07:28:48.875Z,4.60
2022-10-25T07:31:47.748Z,3.65
2022-10-25T07:34:36.539Z,3.85
2022-10-25T07:37:22.006Z,3.92
2022-10-25T07:40:07.542Z,2.95
2022-10-25T07:42:53.587Z,3.00
2022-10-25T07:45:39.187Z,4.03
2022-10-25T07:48:37.152Z,3.95
2022-10-25T07:51:30.653Z,3.20
2022-10-25T07:54:16.261Z,4.03
2022-10-25T07:57:01.847Z,3.05
2022-10-25T07:59:51.712Z,3.30
2022-10-25T08:02:37.236Z,2.65
2022-10-25T08:05:25.072Z,3.30
2022-10-25T08:08:10.444Z,3.08
2022-10-25T08:10:56.010Z,3.70
2022-10-25T08:13:44.277Z,2.83
2022-10-25T08:16:29.771Z,2.95
2022-10-25T08:19:33.768Z,3.17
2022-10-25T08:22:19.267Z,2.85
2022-10-25T08:25:04.790Z,2.85
2022-10-25T08:27:50.720Z,3.15
2022-10-25T08:30:38.462Z,3.13
2022-10-25T08:33:33.948Z,2.95
2022-10-25T08:36:21.043Z,2.55
2022-10-25T08:42:56.494Z,1.65
2022-10-25T08:45:47.133Z,2.67
2022-10-25T08:48:39.280Z,2.40
2022-10-25T08:51:49.104Z,2.60
2022-10-25T08:54:46.822Z,2.90
2022-10-25T08:57:48.997Z,3.10
2022-10-25T09:00:40.012Z,2.85
2022-10-25T09:03:34.126Z,2.40
2022-10-25T09:06:27.460Z,2.67
2022-10-25T09:09:50.534Z,2.73
2022-10-25T09:12:57.740Z,2.40
2022-10-25T09:16:11.545Z,3.03
2022-10-25T09:19:10.845Z,2.20
2022-10-25T09:21:59.001Z,2.63
2022-10-25T09:24:48.802Z,2.40
2022-10-25T09:28:00.228Z,2.30
2022-10-25T09:31:00.694Z,2.90
2022-10-25T09:33:51.806Z,2.90
2022-10-25T09:36:38.537Z,2.42
2022-10-25T09:39:41.929Z,2.67
2022-10-25T09:42:56.375Z,2.80
2022-10-25T09:46:19.279Z,2.55
2022-10-25T09:49:20.009Z,3.17
2022-10-25T09:52:41.509Z,2.63
2022-10-25T09:55:43.140Z,2.88
2022-10-25T09:58:50.631Z,3.47
2022-10-25T10:01:47.378Z,2.95
2022-10-25T10:04:48.531Z,3.28
2022-10-25T10:08:17.294Z,2.63
2022-10-25T10:11:21.428Z,2.72
2022-10-25T10:14:49.582Z,2.53
2022-10-25T10:17:38.708Z,3.85
2022-10-25T10:20:30.910Z,3.40
2022-10-25T10:23:16.262Z,3.40
2022-10-25T10:26:04.075Z,3.10
2022-10-25T10:28:50.082Z,3.58
2022-10-25T10:31:43.015Z,2.75
2022-10-25T10:38:33.024Z,2.58
2022-10-25T10:41:47.814Z,2.38
2022-10-25T10:44:34.204Z,2.38
2022-10-25T10:47:31.074Z,2.35
2022-10-25T10:50:18.989Z,2.47
2022-10-25T10:53:05.942Z,2.30
2022-10-25T10:55:55.112Z,2.78
2022-10-25T10:58:48.597Z,2.83
2022-10-25T11:01:51.168Z,2.33
2022-10-25T11:04:36.689Z,2.20
2022-10-25T11:07:38.186Z,2.55
2022-10-25T11:10:36.194Z,2.15
2022-10-25T11:13:40.078Z,1.92
2022-10-25T11:16:35.850Z,2.70
2022-10-25T11:19:47.003Z,2.22
2022-10-25T11:22:56.497Z,2.45
2022-10-25T11:26:06.088Z,2.35
2022-10-25T11:28:51.484Z,2.58
2022-10-25T11:32:05.856Z,2.28
2022-10-25T11:35:10.369Z,2.95
2022-10-25T11:38:11.570Z,2.55
2022-10-25T11:41:15.942Z,2.15
2022-10-25T11:44:35.062Z,2.45
2022-10-25T11:47:23.629Z,2.25
2022-10-25T11:50:18.583Z,2.95
2022-10-25T11:53:08.166Z,3.72
2022-10-25T11:55:57.915Z,2.92
2022-10-25T11:59:10.748Z,3.42
2022-10-25T12:02:11.389Z,3.15
2022-10-25T12:05:14.140Z,2.90
2022-10-25T12:08:09.037Z,2.80
2022-10-25T12:11:06.957Z,3.00
2022-10-25T12:14:29.556Z,3.08
2022-10-25T12:17:22.293Z,2.47
2022-10-25T12:20:10.380Z,1.88
2022-10-25T12:23:00.687Z,3.17
2022-10-25T12:26:00.364Z,3.55
2022-10-25T12:29:03.024Z,2.95
2022-10-25T12:31:55.427Z,2.83
2022-10-25T12:34:45.240Z,3.05
2022-10-25T12:37:58.897Z,3.20
2022-10-25T12:40:46.663Z,3.65
2022-10-25T12:43:40.741Z,3.72
2022-10-25T12:46:38.284Z,4.47
2022-10-25T12:49:30.231Z,4.00
2022-10-25T12:52:40.557Z,3.60
2022-10-25T12:55:45.203Z,4.10
2022-10-25T12:58:39.510Z,3.15
2022-10-25T13:02:02.525Z,4.20
2022-10-25T13:05:01.907Z,4.28
2022-10-25T13:07:52.557Z,3.72
2022-10-25T13:10:43.331Z,3.75
2022-10-25T13:13:42.117Z,3.35
2022-10-25T13:16:47.001Z,3.45
2022-10-25T13:19:54.081Z,3.10
2022-10-25T13:23:00.473Z,4.47
2022-10-25T13:25:49.033Z,4.57
2022-10-25T13:28:36.244Z,4.40
2022-10-25T13:31:55.802Z,4.10
2022-10-25T13:34:49.334Z,4.68
2022-10-25T13:37:53.755Z,4.30
2022-10-25T13:43:39.753Z,3.53
2022-10-25T13:46:28.694Z,5.13
2022-10-25T13:49:15.696Z,4.03
2022-10-25T13:52:01.241Z,4.65
2022-10-25T13:55:08.319Z,3.50
2022-10-25T13:58:18.719Z,4.78
2022-10-25T14:01:04.882Z,3.70
2022-10-25T14:04:22.075Z,5.00
2022-10-25T14:07:07.870Z,3.33
2022-10-25T14:09:56.406Z,3.90
2022-10-25T14:12:43.768Z,3.28
2022-10-25T14:15:37.357Z,4.18
2022-10-25T14:18:30.552Z,3.72
2022-10-25T14:21:25.267Z,4.68
2022-10-25T14:24:13.203Z,4.00
2022-10-25T14:27:18.528Z,4.50
2022-10-25T14:30:04.289Z,4.15
2022-10-25T14:32:49.945Z,3.72
2022-10-25T14:35:36.066Z,3.72
2022-10-25T14:38:35.340Z,3.88
2022-10-25T14:41:30.179Z,3.83
2022-10-25T14:44:16.138Z,3.75
2022-10-25T14:47:02.876Z,3.47
2022-10-25T14:49:48.542Z,3.33
2022-10-25T14:52:34.105Z,3.13
2022-10-25T14:55:22.776Z,3.58
2022-10-25T14:58:08.587Z,3.63
2022-10-25T15:00:54.146Z,2.72
2022-10-25T15:03:40.071Z,3.67
2022-10-25T15:06:25.762Z,3.30
2022-10-25T15:09:41.876Z,3.33
2022-10-25T15:12:34.456Z,2.65
2022-10-25T15:16:02.572Z,3.67
2022-10-25T15:18:55.489Z,3.78
2022-10-25T15:21:41.301Z,4.38
2022-10-25T15:24:39.780Z,4.30
2022-10-25T15:27:45.083Z,4.85
2022-10-25T15:30:56.426Z,4.97
2022-10-25T15:33:54.727Z,5.10
2022-10-25T15:36:42.793Z,4.95
2022-10-25T15:39:46.479Z,5.28
2022-10-25T15:42:32.891Z,5.55
2022-10-25T15:45:18.385Z,5.57
2022-10-25T15:48:04.531Z,5.68
2022-10-25T15:50:54.626Z,5.75
2022-10-25T15:53:46.666Z,6.78
2022-10-25T15:56:39.681Z,6.43
2022-10-25T15:59:25.324Z,7.53
2022-10-25T16:02:11.750Z,7.13
2022-10-25T16:04:58.199Z,6.18
2022-10-25T16:07:45.995Z,5.70
2022-10-25T16:10:31.571Z,7.40
2022-10-25T16:13:21.462Z,6.38
2022-10-25T16:19:17.214Z,7.65
2022-10-25T16:22:02.751Z,7.13
2022-10-25T16:24:48.850Z,7.30
2022-10-25T16:27:35.422Z,7.53
2022-10-25T16:30:21.034Z,6.28
2022-10-25T16:33:06.376Z,6.53
2022-10-25T16:35:52.883Z,5.93
2022-10-25T16:38:38.431Z,7.05
2022-10-25T16:41:25.699Z,6.28
2022-10-25T16:44:11.236Z,6.43
2022-10-25T16:47:22.687Z,6.47
2022-10-25T16:50:08.468Z,6.22
2022-10-25T16:52:53.828Z,6.13
2022-10-25T16:55:41.021Z,6.82
2022-10-25T16:58:27.924Z,6.75
2022-10-25T17:01:19.203Z,6.03
2022-10-25T17:04:11.490Z,7.07
2022-10-25T17:06:56.994Z,5.95
2022-10-25T17:09:43.467Z,5.90
2022-10-25T17:12:30.486Z,7.55
2022-10-25T17:15:16.114Z,6.70
2022-10-25T17:18:01.496Z,6.13
2022-10-25T17:20:46.840Z,5.78
2022-10-25T17:23:58.314Z,5.65
2022-10-25T17:26:44.059Z,5.50
2022-10-25T17:29:29.637Z,6.20
2022-10-25T17:32:14.948Z,5.35
2022-10-25T17:35:22.715Z,5.90
2022-10-25T17:38:14.124Z,7.60
2022-10-25T17:41:02.543Z,6.72
2022-10-25T17:43:48.575Z,5.97
2022-10-25T17:46:40.515Z,7.50
2022-10-25T17:49:26.189Z,6.28
2022-10-25T17:52:11.854Z,7.03
2022-10-25T17:55:00.216Z,5.95
2022-10-25T17:57:45.869Z,6.97
2022-10-25T18:00:33.218Z,6.40
2022-10-25T18:03:19.754Z,7.38
2022-10-25T18:06:07.923Z,5.60
2022-10-25T18:08:54.133Z,7.07
2022-10-25T18:11:41.056Z,6.40
2022-10-25T18:14:26.572Z,7.78
2022-10-25T18:17:12.007Z,6.05
2022-10-25T18:19:57.415Z,7.43
2022-10-25T18:23:04.060Z,6.18
2022-10-25T18:25:49.522Z,6.72
2022-10-25T18:28:34.955Z,6.63
2022-10-25T18:31:29.589Z,5.43
2022-10-25T18:34:15.654Z,6.22
2022-10-25T18:37:01.101Z,5.85
2022-10-25T18:39:46.745Z,6.15
2022-10-25T18:42:33.226Z,6.20
2022-10-25T18:45:18.782Z,6.32
2022-10-25T18:48:08.288Z,6.53
2022-10-25T18:50:58.302Z,6.55
2022-10-25T18:56:53.945Z,6.20
2022-10-25T18:59:39.418Z,7.38
2022-10-25T19:02:25.198Z,6.60
2022-10-25T19:05:10.852Z,5.85
2022-10-25T19:07:57.616Z,5.78
2022-10-25T19:10:44.403Z,6.05
2022-10-25T19:13:29.850Z,6.28
2022-10-25T19:16:16.430Z,7.13
2022-10-25T19:19:01.796Z,5.93
2022-10-25T19:21:47.396Z,5.78
2022-10-25T19:24:32.967Z,5.22
2022-10-25T19:27:18.581Z,5.70
2022-10-25T19:30:04.948Z,6.03
2022-10-25T19:32:51.285Z,6.32
2022-10-25T19:35:37.508Z,6.53
2022-10-25T19:38:23.495Z,6.28
2022-10-25T19:41:08.981Z,6.85
2022-10-25T19:43:55.115Z,6.25
2022-10-25T19:46:41.006Z,6.50
2022-10-25T19:49:29.445Z,5.75
2022-10-25T19:52:15.460Z,4.78
2022-10-25T19:55:00.987Z,6.53
2022-10-25T19:57:48.472Z,7.57
2022-10-25T20:00:34.788Z,7.35
2022-10-25T20:03:20.193Z,6.28
2022-10-25T20:06:05.538Z,7.57
2022-10-25T20:08:53.058Z,6.00
2022-10-25T20:11:39.106Z,5.07
2022-10-25T20:14:25.002Z,6.65
2022-10-25T20:17:10.882Z,6.45
2022-10-25T20:19:57.031Z,5.35
2022-10-25T20:22:42.638Z,6.50
2022-10-25T20:25:31.828Z,6.70
2022-10-25T20:28:17.335Z,5.40
2022-10-25T20:31:02.844Z,5.95
2022-10-25T20:33:48.665Z,6.05
2022-10-25T20:36:34.605Z,4.82
2022-10-25T20:39:20.371Z,5.50
2022-10-25T20:42:05.772Z,5.35
2022-10-25T20:44:51.288Z,5.25
2022-10-25T20:47:36.906Z,5.65
2022-10-25T20:50:22.443Z,4.95
2022-10-25T20:53:11.184Z,5.07
2022-10-25T20:55:57.210Z,4.93
2022-10-25T20:58:43.803Z,4.20
2022-10-25T21:01:30.035Z,4.53
2022-10-25T21:04:25.729Z,5.03
2022-10-25T21:07:21.037Z,3.67
2022-10-25T21:10:06.669Z,4.40
2022-10-25T21:12:52.444Z,4.97
2022-10-25T21:15:37.887Z,4.32
2022-10-25T21:18:23.708Z,4.65
2022-10-25T21:21:09.404Z,4.65
2022-10-25T21:23:56.730Z,3.75
2022-10-25T21:26:42.667Z,4.13
2022-10-25T21:29:31.268Z,4.55
2022-10-25T21:32:16.950Z,3.70
2022-10-25T21:35:02.599Z,3.65
2022-10-25T21:37:50.984Z,3.72
2022-10-25T21:40:37.286Z,3.90
2022-10-25T21:43:22.884Z,3.33
2022-10-25T21:46:13.418Z,4.03
2022-10-25T21:48:59.465Z,4.93
2022-10-25T21:51:46.551Z,4.25
2022-10-25T21:54:31.987Z,3.80
2022-10-25T21:57:17.734Z,4.22
2022-10-25T22:00:03.309Z,4.97
2022-10-25T22:02:59.303Z,4.55
2022-10-25T22:05:44.815Z,4.22
2022-10-25T22:08:30.362Z,3.88
2022-10-25T22:11:18.532Z,3.17
2022-10-25T22:14:04.122Z,3.85
2022-10-25T22:16:50.953Z,3.38
2022-10-25T22:19:39.635Z,3.83
2022-10-25T22:22:27.935Z,4.32
2022-10-25T22:25:13.182Z,3.92
2022-10-25T22:27:58.495Z,3.70
2022-10-25T22:30:44.002Z,3.17
2022-10-25T22:33:38.947Z,4.43
2022-10-25T22:36:28.002Z,3.58
2022-10-25T22:39:14.072Z,4.43
2022-10-25T22:42:00.182Z,3.83
2022-10-25T22:44:45.762Z,3.05
2022-10-25T22:47:31.543Z,3.15
2022-10-25T22:50:17.145Z,4.63
2022-10-25T22:53:02.510Z,4.07
2022-10-25T22:55:48.022Z,3.33
2022-10-25T22:58:33.463Z,3.92
2022-10-25T23:01:39.180Z,3.17
2022-10-25T23:04:27.341Z,3.55
2022-10-25T23:07:12.776Z,3.45
2022-10-25T23:09:58.227Z,4.05
2022-10-25T23:12:43.935Z,2.90
2022-10-25T23:15:29.653Z,4.07
2022-10-25T23:18:18.179Z,3.85
2022-10-25T23:21:08.264Z,3.03
2022-10-25T23:23:55.725Z,2.80
2022-10-25T23:26:52.363Z,3.45
2022-10-25T23:29:37.883Z,3.15
2022-10-25T23:32:25.457Z,3.00
2022-10-25T23:35:10.959Z,3.70
2022-10-25T23:37:56.397Z,3.15
2022-10-25T23:40:42.830Z,2.80
2022-10-25T23:43:29.690Z,3.28
2022-10-25T23:46:15.049Z,3.92
2022-10-25T23:49:00.357Z,2.97
2022-10-25T23:51:45.737Z,3.20
2022-10-25T23:54:31.279Z,3.28
2022-10-25T23:57:16.925Z,3.40
